Time;durP1;ratioP1;P1;durP2;ratioP2;P2;SDS_P1;SDS_P2;PMS_P1;PMS_P2;Temp;Humidity;BMP_temperature;BMP_pressure;BME280_temperature;BME280_humidity;BME280_pressure;Samples;Min_cycle;Max_cycle;Signal;HPM_P1;HPM_P2
2022/12/11 00:01:48;;;;;;;42.73;24.57;;;-1.80;99.90;;;;;;5073354;28;20540;-74
2022/12/11 00:04:15;;;;;;;44.67;25.30;;;-1.80;99.90;;;;;;5073465;28;20196;-74
2022/12/11 00:06:42;;;;;;;43.60;23.83;;;-1.70;99.90;;;;;;5073532;28;20266;-74
2022/12/11 00:09:09;;;;;;;43.53;25.87;;;-1.70;99.90;;;;;;5073217;28;20315;-74
2022/12/11 00:11:36;;;;;;;41.00;24.07;;;-1.60;99.90;;;;;;5073249;28;20648;-74
2022/12/11 00:14:02;;;;;;;44.20;26.23;;;-1.60;99.90;;;;;;5073621;28;20204;-74
2022/12/11 00:16:30;;;;;;;44.13;25.03;;;-1.60;99.90;;;;;;5073799;28;20205;-74
2022/12/11 00:18:57;;;;;;;42.33;25.43;;;-1.50;99.90;;;;;;5074752;28;20568;-73
2022/12/11 00:21:23;;;;;;;49.27;26.00;;;-1.40;99.90;;;;;;5074280;28;20204;-73
2022/12/11 00:23:50;;;;;;;48.00;25.83;;;-1.40;99.90;;;;;;5074127;28;20206;-73
2022/12/11 00:26:17;;;;;;;46.90;26.67;;;-1.50;99.90;;;;;;5074179;28;20274;-73
2022/12/11 00:28:44;;;;;;;48.17;27.03;;;-1.50;99.90;;;;;;5073994;28;20201;-73
2022/12/11 00:31:14;;;;;;;47.77;25.87;;;-1.40;99.90;;;;;;5074142;28;20251;-73
2022/12/11 00:33:43;;;;;;;46.83;26.47;;;-1.50;99.90;;;;;;5074401;28;20200;-73
2022/12/11 00:36:14;;;;;;;47.43;27.23;;;-1.40;99.90;;;;;;5073732;28;20196;-73
2022/12/11 00:38:41;;;;;;;49.53;27.53;;;-1.40;99.90;;;;;;5073827;28;20201;-73
2022/12/11 00:41:08;;;;;;;47.60;26.50;;;-1.40;99.90;;;;;;5073550;28;20205;-73
2022/12/11 00:43:35;;;;;;;46.47;27.47;;;-1.40;99.90;;;;;;5073447;28;20201;-73
2022/12/11 00:46:02;;;;;;;47.37;26.23;;;-1.30;99.90;;;;;;5073292;28;20266;-73
2022/12/11 00:48:29;;;;;;;48.27;26.63;;;-1.30;99.90;;;;;;5073847;28;20197;-73
2022/12/11 00:50:57;;;;;;;42.50;25.27;;;-1.30;99.90;;;;;;5077007;28;20193;-73
2022/12/11 00:53:24;;;;;;;44.23;26.23;;;-1.30;99.90;;;;;;5077452;28;20724;-73
2022/12/11 00:55:50;;;;;;;40.90;24.30;;;-1.30;99.90;;;;;;5081976;28;20196;-73
2022/12/11 00:58:17;;;;;;;44.93;25.67;;;-1.30;99.90;;;;;;5083462;28;20234;-73
2022/12/11 01:00:44;;;;;;;42.87;26.23;;;-1.40;99.90;;;;;;5081806;28;20196;-73
2022/12/11 01:03:14;;;;;;;41.27;24.57;;;-1.40;99.90;;;;;;5081070;28;20208;-73
2022/12/11 01:05:40;;;;;;;42.83;25.07;;;-1.40;99.90;;;;;;5081769;28;20298;-73
2022/12/11 01:08:08;;;;;;;40.70;23.93;;;-1.40;99.90;;;;;;5081355;28;20292;-73
2022/12/11 01:10:34;;;;;;;41.57;25.47;;;-1.40;99.90;;;;;;5083113;28;20197;-73
2022/12/11 01:13:03;;;;;;;37.83;23.77;;;-1.40;99.90;;;;;;5081330;28;20230;-74
2022/12/11 01:15:32;;;;;;;37.00;23.33;;;-1.40;99.90;;;;;;5078309;28;20254;-73
2022/12/11 01:17:58;;;;;;;41.37;22.40;;;-1.40;99.90;;;;;;5076820;28;20197;-73
2022/12/11 01:20:27;;;;;;;40.93;23.67;;;-1.40;99.90;;;;;;5077111;28;20255;-73
2022/12/11 01:22:55;;;;;;;35.87;22.20;;;-1.40;99.90;;;;;;5081480;28;20264;-73
2022/12/11 01:25:23;;;;;;;38.07;22.63;;;-1.40;99.90;;;;;;5086881;28;20251;-74
2022/12/11 01:27:51;;;;;;;34.03;21.50;;;-1.40;99.90;;;;;;5087001;28;20209;-74
2022/12/11 01:30:19;;;;;;;30.53;19.40;;;-1.50;99.90;;;;;;5087432;28;20223;-74
2022/12/11 01:32:46;;;;;;;32.37;20.50;;;-1.50;99.90;;;;;;5085354;28;20628;-73
2022/12/11 01:35:13;;;;;;;33.77;21.17;;;-1.50;99.90;;;;;;5085106;28;20205;-74
2022/12/11 01:37:40;;;;;;;35.67;21.93;;;-1.50;99.90;;;;;;5086098;28;20201;-73
2022/12/11 01:40:08;;;;;;;33.27;21.30;;;-1.50;99.90;;;;;;5085235;28;20197;-73
2022/12/11 01:42:37;;;;;;;34.97;22.13;;;-1.50;99.90;;;;;;5079411;28;20192;-73
2022/12/11 01:45:38;;;;;;;30.93;20.30;;;-1.50;99.90;;;;;;5076418;28;20223;-73
2022/12/11 01:48:08;;;;;;;33.00;20.80;;;-1.50;99.90;;;;;;5076558;28;20204;-73
2022/12/11 01:50:39;;;;;;;31.70;20.07;;;-1.60;99.90;;;;;;5076168;28;20251;-73
2022/12/11 01:53:09;;;;;;;29.87;19.70;;;-1.60;99.90;;;;;;5076427;28;20197;-73
2022/12/11 01:55:38;;;;;;;30.10;19.37;;;-1.60;99.90;;;;;;5075771;28;20725;-73
2022/12/11 01:58:08;;;;;;;31.50;19.43;;;-1.60;99.90;;;;;;5075651;28;20197;-73
2022/12/11 02:00:34;;;;;;;28.53;18.27;;;-1.60;99.90;;;;;;5076026;28;20197;-73
2022/12/11 02:03:01;;;;;;;27.97;18.33;;;-1.60;99.90;;;;;;5075974;28;20199;-74
2022/12/11 02:05:28;;;;;;;31.10;19.80;;;-1.70;99.90;;;;;;5075554;28;20682;-74
2022/12/11 02:07:58;;;;;;;29.10;19.03;;;-1.70;99.90;;;;;;5074496;28;20602;-73
2022/12/11 02:10:37;;;;;;;30.73;17.93;;;-1.70;99.90;;;;;;5075203;28;20212;-73
2022/12/11 02:13:11;;;;;;;29.67;18.97;;;-1.70;99.90;;;;;;5075942;28;20203;-73
2022/12/11 02:15:48;;;;;;;28.87;18.03;;;-1.70;99.90;;;;;;5075898;28;20210;-73
2022/12/11 02:18:23;;;;;;;28.83;18.73;;;-1.80;99.90;;;;;;5075714;28;20204;-74
2022/12/11 02:20:56;;;;;;;26.47;17.27;;;-1.80;99.90;;;;;;5075533;28;20249;-74
2022/12/11 02:23:52;;;;;;;31.57;19.33;;;-1.80;99.90;;;;;;5075590;28;20204;-74
2022/12/11 02:26:34;;;;;;;27.13;17.83;;;-1.80;99.90;;;;;;5075300;28;20692;-73
2022/12/11 02:29:04;;;;;;;29.63;17.90;;;-1.80;99.90;;;;;;5075424;28;20216;-74
2022/12/11 02:31:36;;;;;;;29.70;19.40;;;-1.80;99.90;;;;;;5075241;28;20197;-74
2022/12/11 02:34:08;;;;;;;27.87;18.93;;;-1.80;99.90;;;;;;5075292;28;20201;-74
2022/12/11 02:36:38;;;;;;;28.70;18.90;;;-1.80;99.90;;;;;;5075126;28;20250;-74
2022/12/11 02:39:07;;;;;;;29.17;18.80;;;-1.80;99.90;;;;;;5075015;28;20251;-74
2022/12/11 02:41:35;;;;;;;30.73;19.40;;;-1.80;99.90;;;;;;5074871;28;20656;-74
2022/12/11 02:44:04;;;;;;;27.50;18.63;;;-1.80;99.90;;;;;;5074698;28;20204;-75
2022/12/11 02:46:33;;;;;;;28.23;18.17;;;-1.80;99.90;;;;;;5074993;28;20634;-74
2022/12/11 02:49:02;;;;;;;28.80;18.30;;;-1.90;99.90;;;;;;5075156;28;20605;-74
2022/12/11 02:51:35;;;;;;;24.73;16.97;;;-1.90;99.90;;;;;;5074924;28;20196;-74
2022/12/11 02:54:04;;;;;;;25.53;16.77;;;-1.90;99.90;;;;;;5074733;28;20205;-75
2022/12/11 02:56:36;;;;;;;24.90;16.33;;;-1.90;99.90;;;;;;5074645;28;20216;-74
2022/12/11 02:59:09;;;;;;;25.57;16.20;;;-1.90;99.90;;;;;;5074885;28;20212;-74
2022/12/11 03:01:36;;;;;;;27.43;17.27;;;-1.80;99.90;;;;;;5074749;28;20200;-74
2022/12/11 03:04:03;;;;;;;24.03;15.80;;;-1.90;99.90;;;;;;5074745;28;20203;-74
2022/12/11 03:06:37;;;;;;;26.63;17.17;;;-1.90;99.90;;;;;;5074601;28;20226;-74
2022/12/11 03:09:04;;;;;;;25.47;17.03;;;-1.90;99.90;;;;;;5074422;28;20231;-75
2022/12/11 03:11:31;;;;;;;22.77;16.43;;;-1.90;99.90;;;;;;5074677;28;20253;-74
2022/12/11 03:13:58;;;;;;;24.70;16.50;;;-2.00;99.90;;;;;;5074562;28;20250;-74
2022/12/11 03:16:34;;;;;;;24.50;16.93;;;-2.00;99.90;;;;;;5076042;28;20204;-74
2022/12/11 03:19:08;;;;;;;23.83;15.37;;;-2.00;99.90;;;;;;5081124;28;20220;-75
2022/12/11 03:21:40;;;;;;;26.57;16.97;;;-2.00;99.90;;;;;;5081719;28;20202;-74
2022/12/11 03:24:11;;;;;;;28.17;17.83;;;-2.00;99.90;;;;;;5082292;28;20200;-75
2022/12/11 03:26:54;;;;;;;26.43;16.97;;;-2.00;99.90;;;;;;5078688;28;20626;-74
2022/12/11 03:29:25;;;;;;;25.60;16.63;;;-2.00;99.90;;;;;;5075895;28;20206;-74
2022/12/11 03:31:59;;;;;;;26.80;17.77;;;-2.00;99.90;;;;;;5081559;28;20628;-75
2022/12/11 03:34:30;;;;;;;26.63;18.07;;;-2.00;99.90;;;;;;5080155;28;20233;-74
2022/12/11 03:36:58;;;;;;;23.77;16.80;;;-2.00;99.90;;;;;;5084825;28;20223;-75
2022/12/11 03:39:29;;;;;;;24.63;16.17;;;-2.00;99.90;;;;;;5084325;28;20197;-75
2022/12/11 03:41:59;;;;;;;25.27;17.70;;;-2.00;99.90;;;;;;5081639;28;20193;-74
2022/12/11 03:44:28;;;;;;;25.23;17.13;;;-2.00;99.90;;;;;;5078627;28;20662;-74
2022/12/11 03:46:57;;;;;;;25.13;16.90;;;-2.00;99.90;;;;;;5075185;28;20602;-74
2022/12/11 03:49:27;;;;;;;26.90;17.77;;;-2.00;99.90;;;;;;5074576;28;20204;-74
2022/12/11 03:51:59;;;;;;;23.63;16.77;;;-2.00;99.90;;;;;;5073924;28;20718;-74
2022/12/11 03:54:27;;;;;;;26.50;16.47;;;-2.00;99.90;;;;;;5073829;28;20223;-75
2022/12/11 03:56:57;;;;;;;24.30;16.10;;;-2.10;99.90;;;;;;5081864;28;20193;-74
2022/12/11 03:59:23;;;;;;;20.30;14.53;;;-2.10;99.90;;;;;;5077280;28;20648;-75
2022/12/11 04:01:50;;;;;;;23.17;16.03;;;-2.10;99.90;;;;;;5080878;28;20207;-75
2022/12/11 04:04:19;;;;;;;20.03;14.87;;;-2.10;99.90;;;;;;5080928;28;20226;-74
2022/12/11 04:06:45;;;;;;;22.67;15.33;;;-2.10;99.90;;;;;;5077930;28;20633;-74
2022/12/11 04:09:12;;;;;;;19.50;14.30;;;-2.10;99.90;;;;;;5080917;28;20254;-74
2022/12/11 04:11:41;;;;;;;20.40;13.97;;;-2.00;99.90;;;;;;5082965;28;20208;-74
2022/12/11 04:16:54;;;;;;;18.83;12.93;;;-2.00;99.90;;;;;;5081847;28;20567;-74
2022/12/11 04:24:52;;;;;;;19.07;13.53;;;-2.10;99.90;;;;;;5082968;28;20206;-74
2022/12/11 04:30:00;;;;;;;20.03;14.17;;;-2.00;99.90;;;;;;5082225;28;20203;-74
2022/12/11 04:32:26;;;;;;;20.70;14.27;;;-2.10;99.90;;;;;;5088649;28;20225;-74
2022/12/11 04:34:54;;;;;;;20.43;14.93;;;-2.10;99.90;;;;;;5087517;28;20602;-74
2022/12/11 04:37:21;;;;;;;23.23;15.07;;;-2.00;99.90;;;;;;5088687;28;20203;-74
2022/12/11 04:39:48;;;;;;;23.27;15.43;;;-2.00;99.90;;;;;;5088144;28;20203;-74
2022/12/11 04:42:14;;;;;;;21.33;14.77;;;-2.00;99.90;;;;;;5087878;28;20211;-74
2022/12/11 04:44:41;;;;;;;21.60;14.30;;;-2.00;99.90;;;;;;5081331;28;20709;-74
2022/12/11 04:47:08;;;;;;;21.97;15.20;;;-2.10;99.90;;;;;;5079955;28;20281;-74
2022/12/11 04:49:34;;;;;;;22.37;15.33;;;-2.00;99.90;;;;;;5082032;28;20204;-74
2022/12/11 04:52:03;;;;;;;22.57;14.63;;;-2.10;99.90;;;;;;5081222;28;20225;-74
2022/12/11 04:54:29;;;;;;;20.47;14.27;;;-2.10;99.90;;;;;;5080567;28;20195;-74
2022/12/11 04:56:56;;;;;;;22.33;15.20;;;-2.10;99.90;;;;;;5081848;28;20211;-74
2022/12/11 04:59:23;;;;;;;20.93;14.40;;;-2.10;99.90;;;;;;5081764;28;20204;-74
2022/12/11 05:01:49;;;;;;;21.63;14.87;;;-2.10;99.90;;;;;;5081070;28;20196;-74
2022/12/11 05:04:16;;;;;;;19.87;14.20;;;-2.20;99.90;;;;;;5080145;28;20193;-75
2022/12/11 05:06:43;;;;;;;18.73;13.33;;;-2.20;99.90;;;;;;5080243;28;20227;-74
2022/12/11 05:09:12;;;;;;;20.50;14.03;;;-2.20;99.90;;;;;;5079801;28;20224;-74
2022/12/11 05:11:39;;;;;;;21.27;13.87;;;-2.20;99.90;;;;;;5079819;28;20231;-74
2022/12/11 05:14:05;;;;;;;19.70;13.37;;;-2.30;99.90;;;;;;5080180;28;20201;-74
2022/12/11 05:16:33;;;;;;;18.97;12.77;;;-2.30;99.90;;;;;;5081203;28;20200;-74
2022/12/11 05:19:00;;;;;;;21.20;13.77;;;-2.30;99.90;;;;;;5081475;28;20203;-74
2022/12/11 05:21:26;;;;;;;18.23;12.87;;;-2.30;99.90;;;;;;5081215;28;20202;-74
2022/12/11 05:23:53;;;;;;;20.97;13.90;;;-2.30;99.90;;;;;;5080926;28;20667;-73
2022/12/11 05:26:21;;;;;;;20.30;13.33;;;-2.30;99.90;;;;;;5080250;28;20680;-74
2022/12/11 05:28:53;;;;;;;19.70;13.53;;;-2.40;99.90;;;;;;5080619;28;20567;-74
2022/12/11 05:31:21;;;;;;;18.57;13.07;;;-2.50;99.90;;;;;;5080870;28;20678;-73
2022/12/11 05:33:49;;;;;;;20.20;14.17;;;-2.50;99.90;;;;;;5080851;28;20203;-73
2022/12/11 05:36:18;;;;;;;18.10;13.37;;;-2.50;99.90;;;;;;5080014;28;20232;-73
2022/12/11 05:38:45;;;;;;;20.17;13.90;;;-2.50;99.90;;;;;;5080143;28;20204;-73
2022/12/11 05:41:14;;;;;;;22.33;15.40;;;-2.50;99.90;;;;;;5079404;28;20221;-74
2022/12/11 05:43:42;;;;;;;18.40;13.53;;;-2.50;99.90;;;;;;5079098;28;20194;-74
2022/12/11 05:46:11;;;;;;;18.83;13.87;;;-2.60;99.90;;;;;;5085725;28;20203;-74
2022/12/11 05:48:38;;;;;;;21.87;15.20;;;-2.70;99.90;;;;;;5085770;28;20198;-74
2022/12/11 05:51:05;;;;;;;23.10;15.60;;;-2.70;99.90;;;;;;5085709;28;20199;-74
2022/12/11 05:53:33;;;;;;;23.43;15.07;;;-2.70;99.90;;;;;;5084026;28;20198;-74
2022/12/11 05:56:04;;;;;;;21.07;14.80;;;-2.70;99.90;;;;;;5082867;28;20203;-74
2022/12/11 05:58:31;;;;;;;21.60;14.53;;;-2.70;99.90;;;;;;5082928;28;20654;-74
2022/12/11 06:01:00;;;;;;;23.47;16.00;;;-2.70;99.90;;;;;;5082567;28;20251;-74
2022/12/11 06:03:26;;;;;;;23.20;15.27;;;-2.80;99.90;;;;;;5079411;28;20199;-74
2022/12/11 06:05:53;;;;;;;25.43;16.10;;;-2.90;99.90;;;;;;5076384;28;20608;-74
2022/12/11 06:08:20;;;;;;;23.37;15.27;;;-3.00;99.90;;;;;;5077273;28;20230;-74
2022/12/11 06:10:47;;;;;;;24.63;16.47;;;-3.10;99.90;;;;;;5076610;28;20204;-74
2022/12/11 06:13:14;;;;;;;24.77;16.33;;;-3.20;99.90;;;;;;5076411;28;20198;-74
2022/12/11 06:15:42;;;;;;;23.27;16.17;;;-3.30;99.90;;;;;;5078342;28;20197;-74
2022/12/11 06:18:10;;;;;;;26.00;15.97;;;-3.40;99.90;;;;;;5083193;28;20211;-74
2022/12/11 06:20:36;;;;;;;26.60;16.93;;;-3.40;99.90;;;;;;5083320;28;20221;-74
2022/12/11 06:23:03;;;;;;;26.80;17.00;;;-3.50;99.90;;;;;;5083453;28;20279;-74
2022/12/11 06:25:30;;;;;;;26.40;17.93;;;-3.60;99.90;;;;;;5082968;28;20244;-74
2022/12/11 06:27:57;;;;;;;28.10;18.40;;;-3.60;99.90;;;;;;5082697;28;20689;-74
2022/12/11 06:30:24;;;;;;;30.70;18.50;;;-3.70;99.90;;;;;;5077378;28;20198;-74
2022/12/11 06:32:50;;;;;;;29.43;18.50;;;-3.80;99.90;;;;;;5076060;28;20661;-74
2022/12/11 06:35:18;;;;;;;27.37;17.87;;;-3.80;99.90;;;;;;5076025;28;20201;-74
2022/12/11 06:37:46;;;;;;;31.03;18.33;;;-3.90;99.90;;;;;;5075654;28;20247;-74
2022/12/11 06:40:12;;;;;;;28.13;17.57;;;-4.10;99.90;;;;;;5075155;28;20687;-74
2022/12/11 06:42:39;;;;;;;34.20;20.43;;;-4.10;99.90;;;;;;5075634;28;20198;-74
2022/12/11 06:45:07;;;;;;;77.03;43.53;;;-4.20;99.90;;;;;;5076196;28;20204;-75
2022/12/11 06:47:33;;;;;;;50.40;29.10;;;-4.30;99.90;;;;;;5075140;28;20221;-74
2022/12/11 06:50:01;;;;;;;61.33;36.90;;;-4.30;99.90;;;;;;5075772;28;20204;-74
2022/12/11 06:52:29;;;;;;;34.30;21.20;;;-4.30;99.90;;;;;;5073575;28;20246;-74
2022/12/11 06:54:56;;;;;;;32.47;20.27;;;-4.20;99.90;;;;;;5074642;28;20197;-74
2022/12/11 06:57:23;;;;;;;33.27;20.53;;;-4.20;99.90;;;;;;5074599;28;20749;-74
2022/12/11 06:59:50;;;;;;;32.97;20.83;;;-4.20;99.90;;;;;;5074750;28;20197;-74
2022/12/11 07:02:19;;;;;;;33.17;20.00;;;-4.10;99.90;;;;;;5074756;28;20597;-74
2022/12/11 07:04:46;;;;;;;33.30;21.37;;;-3.90;99.90;;;;;;5074695;28;20240;-74
2022/12/11 07:07:13;;;;;;;30.93;20.17;;;-3.80;99.90;;;;;;5074265;28;20220;-74
2022/12/11 07:09:41;;;;;;;31.70;19.50;;;-3.70;99.90;;;;;;5074310;28;20268;-74
2022/12/11 07:12:08;;;;;;;30.43;18.67;;;-3.70;99.90;;;;;;5074633;28;20247;-74
2022/12/11 07:14:35;;;;;;;30.83;19.43;;;-3.60;99.90;;;;;;5074629;28;20204;-75
2022/12/11 07:17:02;;;;;;;29.33;18.13;;;-3.60;99.90;;;;;;5074463;28;20296;-75
2022/12/11 07:19:28;;;;;;;34.20;20.33;;;-3.60;99.90;;;;;;5074465;28;20203;-74
2022/12/11 07:21:55;;;;;;;30.20;20.07;;;-3.60;99.90;;;;;;5074417;28;20288;-74
2022/12/11 07:24:22;;;;;;;32.10;19.13;;;-3.60;99.90;;;;;;5074483;28;20251;-74
2022/12/11 07:26:51;;;;;;;29.87;18.53;;;-3.50;99.90;;;;;;5073961;28;20228;-74
2022/12/11 07:29:18;;;;;;;28.20;18.43;;;-3.40;99.90;;;;;;5074126;28;20207;-75
2022/12/11 07:31:45;;;;;;;26.87;17.87;;;-3.40;99.90;;;;;;5074263;28;20252;-74
2022/12/11 07:34:13;;;;;;;28.93;19.10;;;-3.20;99.90;;;;;;5074250;28;20209;-74
2022/12/11 07:36:40;;;;;;;30.17;18.43;;;-3.10;99.90;;;;;;5074026;28;20282;-74
2022/12/11 07:39:07;;;;;;;29.07;18.47;;;-3.10;99.90;;;;;;5074250;28;20200;-74
2022/12/11 07:41:34;;;;;;;28.03;17.77;;;-3.00;99.90;;;;;;5074077;28;20213;-74
2022/12/11 07:44:02;;;;;;;26.40;17.40;;;-3.00;99.90;;;;;;5073923;28;20210;-74
2022/12/11 07:46:31;;;;;;;29.83;18.00;;;-3.00;99.90;;;;;;5074187;28;20195;-75
2022/12/11 07:48:59;;;;;;;27.83;17.70;;;-2.90;99.90;;;;;;5074419;28;20201;-74
2022/12/11 07:51:28;;;;;;;26.47;18.10;;;-2.90;99.90;;;;;;5074355;28;20234;-74
2022/12/11 07:53:56;;;;;;;27.33;17.60;;;-2.90;99.90;;;;;;5073933;28;20658;-74
2022/12/11 07:56:24;;;;;;;25.47;17.50;;;-2.90;99.90;;;;;;5073926;28;20649;-75
2022/12/11 07:58:51;;;;;;;26.40;17.33;;;-2.80;99.90;;;;;;5073968;28;20213;-74
2022/12/11 08:01:22;;;;;;;29.30;18.47;;;-2.80;99.90;;;;;;5073490;28;20659;-74
2022/12/11 08:03:50;;;;;;;27.47;17.73;;;-2.70;99.90;;;;;;5073747;28;20207;-74
2022/12/11 08:06:18;;;;;;;31.60;18.63;;;-2.70;99.90;;;;;;5073311;28;20287;-74
2022/12/11 08:08:44;;;;;;;31.50;18.83;;;-2.70;99.90;;;;;;5073241;28;20770;-73
2022/12/11 08:11:14;;;;;;;27.40;18.37;;;-2.70;99.90;;;;;;5073715;28;20199;-75
2022/12/11 08:13:43;;;;;;;25.40;17.10;;;-2.70;99.90;;;;;;5073555;28;20199;-75
2022/12/11 08:16:13;;;;;;;27.83;18.70;;;-2.60;99.90;;;;;;5073663;28;20203;-73
2022/12/11 08:18:42;;;;;;;26.23;16.53;;;-2.60;99.90;;;;;;5073841;28;20205;-75
2022/12/11 08:21:09;;;;;;;28.63;18.73;;;-2.60;99.90;;;;;;5073886;28;20207;-74
2022/12/11 08:23:36;;;;;;;29.10;18.80;;;-2.50;99.90;;;;;;5073796;28;20199;-73
2022/12/11 08:26:04;;;;;;;27.93;18.30;;;-2.50;99.90;;;;;;5073656;28;20215;-73
2022/12/11 08:28:31;;;;;;;28.03;17.83;;;-2.50;99.90;;;;;;5074034;28;20278;-74
2022/12/11 08:30:59;;;;;;;26.90;17.33;;;-2.50;99.90;;;;;;5074195;28;20199;-73
2022/12/11 08:33:42;;;;;;;26.67;17.93;;;-2.40;99.90;;;;;;5073312;28;20210;-75
2022/12/11 08:36:14;;;;;;;27.17;17.80;;;-2.50;99.90;;;;;;5076839;28;20199;-76
2022/12/11 08:38:41;;;;;;;27.53;18.20;;;-2.50;99.90;;;;;;5079037;28;20199;-76
2022/12/11 08:41:09;;;;;;;28.23;18.60;;;-2.30;99.90;;;;;;5081569;28;20654;-80
2022/12/11 08:43:36;;;;;;;23.20;16.63;;;-2.30;99.90;;;;;;5080176;28;20202;-76
2022/12/11 08:46:03;;;;;;;27.97;18.47;;;-2.20;99.90;;;;;;5076938;28;20209;-74
2022/12/11 08:48:30;;;;;;;29.63;18.90;;;-2.10;99.90;;;;;;5078639;28;20220;-75
2022/12/11 08:51:01;;;;;;;26.37;18.30;;;-2.10;99.90;;;;;;5077393;28;20211;-76
2022/12/11 08:53:28;;;;;;;25.87;17.77;;;-2.10;99.90;;;;;;5079155;28;20723;-74
2022/12/11 08:55:55;;;;;;;26.87;17.90;;;-2.00;99.90;;;;;;5079495;28;20226;-74
2022/12/11 08:58:21;;;;;;;29.27;19.40;;;-1.90;99.90;;;;;;5078626;28;20208;-74
2022/12/11 09:00:48;;;;;;;27.40;19.23;;;-1.70;99.90;;;;;;5077814;28;20197;-75
2022/12/11 09:03:15;;;;;;;30.43;19.27;;;-1.70;99.90;;;;;;5073434;28;20200;-75
2022/12/11 09:05:42;;;;;;;27.30;18.47;;;-1.70;99.90;;;;;;5076682;28;20289;-75
2022/12/11 09:08:10;;;;;;;27.67;18.83;;;-1.70;99.90;;;;;;5076204;28;20232;-75
2022/12/11 09:10:36;;;;;;;29.37;19.43;;;-1.50;99.90;;;;;;5074238;28;20199;-74
2022/12/11 09:13:03;;;;;;;28.37;18.93;;;-1.40;99.90;;;;;;5073650;28;20200;-75
2022/12/11 09:15:30;;;;;;;26.80;18.30;;;-1.40;99.90;;;;;;5073739;28;20251;-75
2022/12/11 09:17:56;;;;;;;26.13;18.37;;;-1.40;99.90;;;;;;5076380;28;20602;-75
2022/12/11 09:20:23;;;;;;;28.10;18.40;;;-1.20;99.90;;;;;;5077853;28;20598;-76
2022/12/11 09:22:50;;;;;;;27.30;18.17;;;-1.10;99.90;;;;;;5077632;28;20251;-76
2022/12/11 09:25:18;;;;;;;24.73;16.30;;;-1.00;99.90;;;;;;5077475;28;20270;-75
2022/12/11 09:27:44;;;;;;;22.80;16.20;;;-1.00;99.90;;;;;;5078796;28;20232;-75
2022/12/11 09:30:12;;;;;;;22.60;16.50;;;-1.00;99.90;;;;;;5076840;28;20652;-75
2022/12/11 09:32:39;;;;;;;22.93;16.30;;;-1.00;99.90;;;;;;5076553;28;20204;-75
2022/12/11 09:35:07;;;;;;;22.47;15.60;;;-1.00;99.90;;;;;;5076654;28;20555;-75
2022/12/11 09:37:34;;;;;;;23.23;16.67;;;-1.00;99.90;;;;;;5078068;28;20209;-76
2022/12/11 09:40:00;;;;;;;21.47;14.93;;;-0.80;99.90;;;;;;5076607;28;20676;-75
2022/12/11 09:42:36;;;;;;;21.67;15.67;;;-0.80;99.90;;;;;;5076756;28;20201;-74
2022/12/11 09:45:05;;;;;;;23.07;16.67;;;-0.90;99.90;;;;;;5077689;28;20192;-74
2022/12/11 09:47:35;;;;;;;24.13;15.47;;;-0.80;99.90;;;;;;5076964;28;20565;-75
2022/12/11 09:50:10;;;;;;;20.93;14.37;;;-0.70;99.90;;;;;;5077288;28;20200;-75
2022/12/11 09:52:40;;;;;;;22.00;14.53;;;-0.80;99.90;;;;;;5077595;28;20250;-75
2022/12/11 09:55:14;;;;;;;25.13;15.23;;;-0.70;99.90;;;;;;5078522;28;20223;-76
2022/12/11 09:57:52;;;;;;;23.70;15.47;;;-0.50;99.90;;;;;;5079130;28;20204;-74
2022/12/11 10:00:26;;;;;;;22.13;15.57;;;-0.50;99.90;;;;;;5080408;28;20201;-76
2022/12/11 10:03:26;;;;;;;21.53;15.57;;;-0.40;99.90;;;;;;5084187;28;20205;-77
2022/12/11 10:06:02;;;;;;;20.60;14.00;;;-0.20;99.90;;;;;;5088484;28;20255;-77
2022/12/11 10:08:37;;;;;;;18.33;13.60;;;-0.40;99.90;;;;;;5087846;28;20236;-75
2022/12/11 10:11:22;;;;;;;25.70;17.83;;;-0.40;99.90;;;;;;5087294;28;20223;-76
2022/12/11 10:13:58;;;;;;;22.80;15.53;;;-0.20;99.90;;;;;;5086996;28;20196;-74
2022/12/11 10:16:33;;;;;;;22.27;15.40;;;-0.10;99.90;;;;;;5086740;28;20250;-78
2022/12/11 10:19:00;;;;;;;19.63;13.90;;;-0.30;99.90;;;;;;5087107;28;20201;-76
2022/12/11 10:21:31;;;;;;;23.60;17.33;;;-0.30;99.90;;;;;;5084498;28;20208;-75
2022/12/11 10:24:00;;;;;;;22.17;16.67;;;-0.40;99.90;;;;;;5082826;28;20594;-75
2022/12/11 10:26:28;;;;;;;25.43;16.17;;;-0.50;99.90;;;;;;5076284;28;20201;-75
2022/12/11 10:28:59;;;;;;;39.87;22.13;;;-0.60;99.90;;;;;;5076519;28;20232;-74
2022/12/11 10:31:32;;;;;;;22.13;14.83;;;-0.60;99.90;;;;;;5076869;28;20258;-74
2022/12/11 10:34:01;;;;;;;25.87;16.17;;;-0.50;99.90;;;;;;5076709;28;20204;-74
2022/12/11 10:36:30;;;;;;;20.87;14.03;;;-0.40;99.90;;;;;;5076620;28;20327;-75
2022/12/11 10:38:58;;;;;;;20.27;13.53;;;-0.50;99.90;;;;;;5076601;28;20227;-76
2022/12/11 10:41:36;;;;;;;21.87;13.40;;;-0.30;99.90;;;;;;5077135;28;20223;-75
2022/12/11 10:44:15;;;;;;;20.00;13.77;;;-0.10;99.90;;;;;;5076811;28;20594;-74
2022/12/11 10:46:42;;;;;;;19.17;13.00;;;0.10;99.90;;;;;;5075387;28;20280;-74
2022/12/11 10:49:22;;;;;;;18.90;13.67;;;-0.10;99.90;;;;;;5076068;28;20284;-74
2022/12/11 10:51:48;;;;;;;17.33;13.00;;;0.00;99.90;;;;;;5076215;28;20204;-74
2022/12/11 10:54:27;;;;;;;14.73;11.20;;;-0.10;99.90;;;;;;5075251;28;20247;-75
2022/12/11 10:56:55;;;;;;;15.63;10.93;;;-0.20;99.90;;;;;;5076350;28;20326;-75
2022/12/11 10:59:28;;;;;;;15.97;11.30;;;-0.30;99.90;;;;;;5076757;28;20204;-74
2022/12/11 11:01:55;;;;;;;12.37;8.93;;;-0.30;99.90;;;;;;5072686;28;20223;-73
2022/12/11 11:04:31;;;;;;;11.93;9.03;;;0.00;99.90;;;;;;5072373;28;20735;-74
2022/12/11 11:07:02;;;;;;;12.73;9.43;;;0.00;99.90;;;;;;5072252;28;20935;-74
2022/12/11 11:09:30;;;;;;;17.90;11.43;;;0.10;99.90;;;;;;5071774;28;20645;-74
2022/12/11 11:11:57;;;;;;;16.03;11.00;;;0.00;99.90;;;;;;5072387;28;20710;-74
2022/12/11 11:14:25;;;;;;;19.60;13.47;;;-0.20;99.90;;;;;;5072400;28;20200;-74
2022/12/11 11:16:55;;;;;;;19.07;13.07;;;-0.20;99.90;;;;;;5071991;28;20247;-74
2022/12/11 11:19:24;;;;;;;19.33;13.50;;;-0.40;99.90;;;;;;5072272;28;20201;-72
2022/12/11 11:21:54;;;;;;;20.37;13.77;;;-0.20;99.90;;;;;;5072936;28;20212;-73
2022/12/11 11:24:29;;;;;;;19.30;12.77;;;-0.30;99.90;;;;;;5073570;28;20201;-75
2022/12/11 11:26:57;;;;;;;24.07;14.67;;;-0.20;99.90;;;;;;5074878;28;20207;-74
2022/12/11 11:29:30;;;;;;;17.50;12.63;;;-0.30;99.90;;;;;;5074464;28;20225;-75
2022/12/11 11:31:57;;;;;;;18.23;12.17;;;-0.50;99.90;;;;;;5074656;28;20258;-74
2022/12/11 11:34:25;;;;;;;19.77;13.57;;;-0.60;99.90;;;;;;5073511;28;20201;-76
2022/12/11 11:36:56;;;;;;;19.13;12.90;;;-0.60;99.90;;;;;;5072504;28;20618;-73
2022/12/11 11:39:28;;;;;;;19.43;13.73;;;-0.70;99.90;;;;;;5090286;28;20205;-74
2022/12/11 11:42:01;;;;;;;22.07;14.90;;;-0.70;99.90;;;;;;5073159;28;20204;-72
2022/12/11 11:44:34;;;;;;;22.53;15.43;;;-0.50;99.90;;;;;;5075018;28;20201;-74
2022/12/11 11:47:05;;;;;;;25.70;16.47;;;-0.50;99.90;;;;;;5076050;28;20205;-74
2022/12/11 11:49:46;;;;;;;25.93;16.67;;;-0.60;99.90;;;;;;5077660;28;20225;-74
2022/12/11 11:52:19;;;;;;;26.07;16.67;;;-0.80;99.90;;;;;;5074837;28;20261;-73
2022/12/11 11:54:52;;;;;;;23.10;14.90;;;-0.80;99.90;;;;;;5073052;28;20212;-74
2022/12/11 11:57:28;;;;;;;25.37;17.03;;;-0.90;99.90;;;;;;5071822;28;20247;-74
2022/12/11 12:00:08;;;;;;;23.50;14.97;;;-0.90;99.90;;;;;;5072503;28;20196;-74
2022/12/11 12:02:35;;;;;;;23.23;15.40;;;-0.90;99.90;;;;;;5072902;28;20197;-72
2022/12/11 12:05:17;;;;;;;23.53;16.27;;;-1.10;99.90;;;;;;5075694;28;20193;-83
2022/12/11 12:07:51;;;;;;;28.27;17.90;;;-1.00;99.90;;;;;;5082026;28;20197;-74
2022/12/11 12:10:24;;;;;;;26.63;17.60;;;-1.00;99.90;;;;;;5073931;28;20315;-73
2022/12/11 12:12:57;;;;;;;25.57;16.47;;;-1.00;99.90;;;;;;5074983;28;20205;-75
2022/12/11 12:15:35;;;;;;;29.53;18.20;;;-1.00;99.90;;;;;;5074545;28;20652;-73
2022/12/11 12:18:13;;;;;;;26.93;18.50;;;-1.20;99.90;;;;;;5074455;28;20196;-74
2022/12/11 12:20:47;;;;;;;29.23;19.33;;;-1.20;99.90;;;;;;5071874;28;20800;-73
2022/12/11 12:23:49;;;;;;;28.60;18.47;;;-1.30;99.90;;;;;;5072423;28;20258;-73
2022/12/11 12:26:23;;;;;;;27.77;18.50;;;-1.30;99.90;;;;;;5072396;28;20204;-74
2022/12/11 12:28:57;;;;;;;27.03;17.30;;;-1.30;99.90;;;;;;5072439;28;20227;-74
2022/12/11 12:31:36;;;;;;;26.13;16.27;;;-1.50;99.90;;;;;;5074537;28;20714;-75
2022/12/11 12:34:10;;;;;;;27.17;16.83;;;-1.50;99.90;;;;;;5075129;28;20207;-75
2022/12/11 12:36:46;;;;;;;26.63;16.97;;;-1.50;99.90;;;;;;5079844;28;20204;-74
2022/12/11 12:39:23;;;;;;;24.30;16.63;;;-1.50;99.90;;;;;;5074060;28;20200;-74
2022/12/11 12:41:57;;;;;;;22.70;15.43;;;-1.50;99.90;;;;;;5073878;28;20201;-74
2022/12/11 12:44:25;;;;;;;24.93;15.57;;;-1.50;99.90;;;;;;5074641;28;20270;-75
2022/12/11 12:46:59;;;;;;;26.97;16.80;;;-1.50;99.90;;;;;;5075488;28;20197;-74
2022/12/11 12:49:34;;;;;;;25.00;17.27;;;-1.50;99.90;;;;;;5075618;28;20220;-74
2022/12/11 12:52:02;;;;;;;22.83;16.23;;;-1.40;99.90;;;;;;5078134;28;20203;-74